»·PEaware :: N4987R L71-KLGB

N4987R :: L71-KLGB

FLIGHT INFORMATION

Flight Status: Arrived
Operator: Privately registered:
United States
More flights under this callsign
Pilot: Jonathan F. (6622)
Aircraft: CESSNA 172 SKYHAWK
(C172)
More flights by this aircraft type
Origin: L71 California City Mun
United States
Destination: KLGB Long Beach
United States
More flights between these airports :: More routes between these airports
Route: +PMD V201 BERRI V459 SLI
File this flight plan on PilotEdge
Remarks:
Altitude:
(Current/Filed)
12,000ft
Speed:
(Current/Filed)
110kts
Departed: 12-Apr-15 08:32 AM
Arrived: 12-Apr-15 09:36 AM
Distance/Time
Traveled:
81nm/1:04
Distance/Time
To Go:
Arrived

Flight Plot

Page will automatically refresh every two minutes.

Flight plan parsing failed; only flown route is shown


Map Options




Map Legend


Flown Route
Filed Route
Departure Airport
Arrival Airport
Navaid (VOR, NDB)
Fix

Horizontal Profiles

Position Reports

Time Latitude Longitude Heading Altitude Ground
Speed
12-Apr-15 08:07 35.150020 -118.015621 239 2457ft 0kts
12-Apr-15 08:08 35.150017 -118.015627 239 2457ft 0kts
12-Apr-15 08:09 35.150015 -118.015632 239 2457ft 0kts
12-Apr-15 08:10 35.150012 -118.015637 239 2457ft 0kts
12-Apr-15 08:11 35.150009 -118.015642 239 2457ft 0kts
12-Apr-15 08:12 35.150007 -118.015647 239 2457ft 0kts
12-Apr-15 08:13 35.150005 -118.015652 239 2457ft 0kts
12-Apr-15 08:13 35.150002 -118.015657 239 2457ft 0kts
12-Apr-15 08:14 35.150000 -118.015662 239 2457ft 0kts
12-Apr-15 08:15 35.149997 -118.015667 239 2457ft 0kts
12-Apr-15 08:17 35.149995 -118.015673 239 2457ft 0kts
12-Apr-15 08:17 35.149992 -118.015677 239 2457ft 0kts
12-Apr-15 08:18 35.149990 -118.015682 239 2457ft 0kts
12-Apr-15 08:19 35.150831 -118.015688 48 2457ft 10kts
12-Apr-15 08:20 35.151784 -118.011554 74 2457ft 14kts
12-Apr-15 08:21 35.152894 -118.006936 11 2457ft 0kts
12-Apr-15 08:22 35.152900 -118.006935 10 2457ft 0kts
12-Apr-15 08:24 35.152905 -118.006933 10 2457ft 0kts
12-Apr-15 08:25 35.152911 -118.006932 10 2457ft 0kts
12-Apr-15 08:26 35.152916 -118.006931 10 2457ft 0kts
12-Apr-15 08:27 35.152922 -118.006929 10 2457ft 0kts
12-Apr-15 08:28 35.152927 -118.006928 10 2457ft 0kts
12-Apr-15 08:29 35.152933 -118.006927 10 2457ft 0kts
12-Apr-15 08:30 35.152938 -118.006925 10 2457ft 0kts
12-Apr-15 08:31 35.151598 -118.015176 248 2537ft 75kts
12-Apr-15 08:32 35.138270 -118.031463 162 3276ft 84kts
12-Apr-15 08:33 35.116459 -118.024954 172 4132ft 81kts
12-Apr-15 08:34 35.100133 -118.023508 168 4883ft 78kts
12-Apr-15 08:35 35.086220 -118.021922 173 5312ft 87kts
12-Apr-15 08:36 35.060574 -118.022498 180 6252ft 100kts
12-Apr-15 08:37 35.034808 -118.025386 184 7107ft 96kts
12-Apr-15 08:38 35.007769 -118.032141 181 7786ft 85kts
12-Apr-15 08:39 34.982748 -118.034960 175 8258ft 92kts
12-Apr-15 08:40 34.957602 -118.036821 174 8741ft 95kts
12-Apr-15 08:41 34.931602 -118.038923 180 9289ft 93kts
12-Apr-15 08:42 34.906085 -118.045669 187 9804ft 95kts
12-Apr-15 08:43 34.879429 -118.052859 179 10257ft 101kts
12-Apr-15 08:44 34.852591 -118.052913 173 10753ft 99kts
12-Apr-15 08:45 34.824731 -118.052950 170 11224ft 97kts
12-Apr-15 08:46 34.798511 -118.051716 171 11674ft 97kts
12-Apr-15 08:47 34.772014 -118.052026 169 11968ft 107kts
12-Apr-15 08:48 34.738313 -118.051856 175 12008ft 128kts
12-Apr-15 08:49 34.701924 -118.056985 184 12088ft 126kts
12-Apr-15 08:50 34.666744 -118.062425 176 12045ft 122kts
12-Apr-15 08:51 34.632515 -118.064416 161 12078ft 115kts
12-Apr-15 08:52 34.602102 -118.084565 196 12146ft 133kts
12-Apr-15 08:53 34.566106 -118.096150 186 12079ft 125kts
12-Apr-15 08:54 34.531847 -118.105586 191 12077ft 125kts
12-Apr-15 08:55 34.499585 -118.125906 208 12059ft 135kts
12-Apr-15 08:56 34.468296 -118.151359 203 12037ft 128kts
12-Apr-15 08:57 34.437871 -118.168171 196 12006ft 114kts
12-Apr-15 08:58 34.408308 -118.181678 191 11947ft 122kts
12-Apr-15 08:59 34.375497 -118.193878 191 12130ft 112kts
12-Apr-15 09:00 34.350981 -118.202341 190 11956ft 120kts
12-Apr-15 09:01 34.321255 -118.216860 197 11934ft 119kts
12-Apr-15 09:02 34.291288 -118.234494 202 11944ft 125kts
12-Apr-15 09:03 34.260440 -118.255135 204 11992ft 132kts
12-Apr-15 09:04 34.226074 -118.277838 205 11975ft 141kts
12-Apr-15 09:05 34.193363 -118.293157 158 12041ft 116kts
12-Apr-15 09:06 34.162228 -118.282856 155 12117ft 111kts
12-Apr-15 09:07 34.138552 -118.262626 123 12073ft 110kts
12-Apr-15 09:08 34.112933 -118.246982 126 12274ft 103kts
12-Apr-15 09:09 34.109961 -118.243465 126 12134ft 115kts
12-Apr-15 09:10 34.078667 -118.228162 154 12108ft 119kts
12-Apr-15 09:11 34.045384 -118.213772 150 12032ft 133kts
12-Apr-15 09:12 34.012354 -118.198249 151 12153ft 118kts
12-Apr-15 09:13 33.978773 -118.206338 190 11125ft 129kts
12-Apr-15 09:14 33.942723 -118.217429 189 9983ft 138kts
12-Apr-15 09:15 33.905814 -118.226404 185 8933ft 132kts
12-Apr-15 09:16 33.870848 -118.233642 183 8213ft 123kts
12-Apr-15 09:17 33.837601 -118.240869 184 7620ft 124kts
12-Apr-15 09:18 33.810924 -118.222316 128 6984ft 115kts
12-Apr-15 09:19 33.787185 -118.193130 129 6360ft 122kts
12-Apr-15 09:20 33.765381 -118.161596 129 5654ft 123kts
12-Apr-15 09:20 33.745092 -118.138326 133 4999ft 114kts
12-Apr-15 09:21 33.726220 -118.116841 126 5021ft 77kts
12-Apr-15 09:22 33.715647 -118.094643 71 5044ft 96kts
12-Apr-15 09:23 33.726822 -118.061422 67 4938ft 116kts
12-Apr-15 09:24 33.737861 -118.026707 71 5002ft 110kts
12-Apr-15 09:25 33.745557 -118.001374 68 5180ft 88kts
12-Apr-15 09:26 33.745894 -118.000217 71 5148ft 92kts
12-Apr-15 09:27 33.755720 -117.988643 274 4835ft 112kts
12-Apr-15 09:28 33.732994 -118.012506 213 4059ft 97kts
12-Apr-15 09:29 33.730601 -118.045410 294 3333ft 116kts
12-Apr-15 09:31 33.752031 -118.072603 310 2534ft 112kts
12-Apr-15 09:32 33.773076 -118.097418 310 1868ft 104kts
12-Apr-15 09:33 33.792972 -118.121453 311 796ft 104kts
12-Apr-15 09:34 33.809791 -118.141646 313 150ft 67kts
12-Apr-15 09:35 33.815012 -118.148684 270 63ft 12kts
12-Apr-15 09:36 33.813667 -118.151292 212 63ft 12kts
12-Apr-15 09:37 33.812778 -118.152011 356 63ft 0kts
12-Apr-15 09:38 33.812779 -118.152011 356 63ft 0kts

Navigation Log

Ident Type
Flight plan parsing failed, navigation log unavailable